sensor_id;sensor_type;location;lat;lon;timestamp;P1;durP1;ratioP1;P2;durP2;ratioP2
29314;SDS011;16320;53.954;9.506;2024-02-14T00:00:24;13.57;;;6.80;;
29314;SDS011;16320;53.954;9.506;2024-02-14T00:02:52;11.75;;;6.95;;
29314;SDS011;16320;53.954;9.506;2024-02-14T00:05:20;9.90;;;6.30;;
29314;SDS011;16320;53.954;9.506;2024-02-14T00:07:49;15.57;;;7.47;;
29314;SDS011;16320;53.954;9.506;2024-02-14T00:10:17;12.18;;;7.10;;
29314;SDS011;16320;53.954;9.506;2024-02-14T00:12:45;15.40;;;7.20;;
29314;SDS011;16320;53.954;9.506;2024-02-14T00:15:14;8.43;;;6.70;;
29314;SDS011;16320;53.954;9.506;2024-02-14T00:17:42;12.80;;;6.75;;
29314;SDS011;16320;53.954;9.506;2024-02-14T00:20:10;17.30;;;6.20;;
29314;SDS011;16320;53.954;9.506;2024-02-14T00:22:39;8.82;;;5.65;;
29314;SDS011;16320;53.954;9.506;2024-02-14T00:25:07;12.10;;;6.32;;
29314;SDS011;16320;53.954;9.506;2024-02-14T00:27:35;14.70;;;6.22;;
29314;SDS011;16320;53.954;9.506;2024-02-14T00:30:04;10.35;;;5.65;;
29314;SDS011;16320;53.954;9.506;2024-02-14T00:32:33;10.00;;;5.53;;
29314;SDS011;16320;53.954;9.506;2024-02-14T00:35:01;12.23;;;6.20;;
29314;SDS011;16320;53.954;9.506;2024-02-14T00:37:30;11.75;;;4.68;;
29314;SDS011;16320;53.954;9.506;2024-02-14T00:39:59;7.72;;;5.03;;
29314;SDS011;16320;53.954;9.506;2024-02-14T00:42:28;11.60;;;5.32;;
29314;SDS011;16320;53.954;9.506;2024-02-14T00:44:56;7.25;;;4.90;;
29314;SDS011;16320;53.954;9.506;2024-02-14T00:47:23;10.60;;;4.75;;
29314;SDS011;16320;53.954;9.506;2024-02-14T00:49:52;12.07;;;4.20;;
29314;SDS011;16320;53.954;9.506;2024-02-14T00:52:19;10.40;;;4.38;;
29314;SDS011;16320;53.954;9.506;2024-02-14T00:54:48;8.57;;;4.90;;
29314;SDS011;16320;53.954;9.506;2024-02-14T00:57:17;7.03;;;4.03;;
29314;SDS011;16320;53.954;9.506;2024-02-14T00:59:46;9.02;;;4.72;;
29314;SDS011;16320;53.954;9.506;2024-02-14T01:02:14;10.63;;;4.40;;
29314;SDS011;16320;53.954;9.506;2024-02-14T01:04:42;9.10;;;3.88;;
29314;SDS011;16320;53.954;9.506;2024-02-14T01:07:10;8.43;;;4.35;;
29314;SDS011;16320;53.954;9.506;2024-02-14T01:09:38;7.10;;;3.92;;
29314;SDS011;16320;53.954;9.506;2024-02-14T01:12:06;14.20;;;4.65;;
29314;SDS011;16320;53.954;9.506;2024-02-14T01:14:34;6.60;;;3.65;;
29314;SDS011;16320;53.954;9.506;2024-02-14T01:17:03;19.23;;;7.25;;
29314;SDS011;16320;53.954;9.506;2024-02-14T01:19:31;11.10;;;3.92;;
29314;SDS011;16320;53.954;9.506;2024-02-14T01:22:00;9.57;;;4.45;;
29314;SDS011;16320;53.954;9.506;2024-02-14T01:24:29;6.30;;;3.90;;
29314;SDS011;16320;53.954;9.506;2024-02-14T01:26:57;6.60;;;4.18;;
29314;SDS011;16320;53.954;9.506;2024-02-14T01:29:25;7.03;;;3.55;;
29314;SDS011;16320;53.954;9.506;2024-02-14T01:31:55;5.32;;;3.30;;
29314;SDS011;16320;53.954;9.506;2024-02-14T01:34:23;13.25;;;4.13;;
29314;SDS011;16320;53.954;9.506;2024-02-14T01:36:51;7.43;;;4.05;;
29314;SDS011;16320;53.954;9.506;2024-02-14T01:39:19;7.97;;;3.97;;
29314;SDS011;16320;53.954;9.506;2024-02-14T01:41:48;11.50;;;4.80;;
29314;SDS011;16320;53.954;9.506;2024-02-14T01:44:16;9.88;;;4.40;;
29314;SDS011;16320;53.954;9.506;2024-02-14T01:46:48;9.45;;;4.57;;
29314;SDS011;16320;53.954;9.506;2024-02-14T01:49:16;7.53;;;4.47;;
29314;SDS011;16320;53.954;9.506;2024-02-14T01:51:44;10.45;;;4.22;;
29314;SDS011;16320;53.954;9.506;2024-02-14T01:54:13;10.55;;;4.97;;
29314;SDS011;16320;53.954;9.506;2024-02-14T01:56:43;6.80;;;4.47;;
29314;SDS011;16320;53.954;9.506;2024-02-14T01:59:13;6.50;;;4.72;;
29314;SDS011;16320;53.954;9.506;2024-02-14T02:01:44;12.07;;;5.00;;
29314;SDS011;16320;53.954;9.506;2024-02-14T02:04:12;11.38;;;5.40;;
29314;SDS011;16320;53.954;9.506;2024-02-14T02:06:41;8.65;;;4.60;;
29314;SDS011;16320;53.954;9.506;2024-02-14T02:09:09;10.80;;;5.68;;
29314;SDS011;16320;53.954;9.506;2024-02-14T02:11:50;9.32;;;5.90;;
29314;SDS011;16320;53.954;9.506;2024-02-14T02:14:22;10.25;;;5.82;;
29314;SDS011;16320;53.954;9.506;2024-02-14T02:16:50;8.68;;;5.63;;
29314;SDS011;16320;53.954;9.506;2024-02-14T02:19:19;13.43;;;5.68;;
29314;SDS011;16320;53.954;9.506;2024-02-14T02:21:48;11.90;;;5.53;;
29314;SDS011;16320;53.954;9.506;2024-02-14T02:24:16;10.93;;;6.07;;
29314;SDS011;16320;53.954;9.506;2024-02-14T02:26:44;11.35;;;5.50;;
29314;SDS011;16320;53.954;9.506;2024-02-14T02:29:12;10.55;;;6.05;;
29314;SDS011;16320;53.954;9.506;2024-02-14T02:31:42;12.75;;;6.65;;
29314;SDS011;16320;53.954;9.506;2024-02-14T02:34:10;13.93;;;6.50;;
29314;SDS011;16320;53.954;9.506;2024-02-14T02:36:40;13.60;;;7.07;;
29314;SDS011;16320;53.954;9.506;2024-02-14T02:39:11;12.40;;;6.68;;
29314;SDS011;16320;53.954;9.506;2024-02-14T02:41:40;12.48;;;6.75;;
29314;SDS011;16320;53.954;9.506;2024-02-14T02:44:08;12.43;;;7.20;;
29314;SDS011;16320;53.954;9.506;2024-02-14T02:46:36;18.77;;;8.85;;
29314;SDS011;16320;53.954;9.506;2024-02-14T02:49:04;14.23;;;7.35;;
29314;SDS011;16320;53.954;9.506;2024-02-14T02:51:32;10.80;;;7.07;;
29314;SDS011;16320;53.954;9.506;2024-02-14T02:54:01;12.85;;;8.38;;
29314;SDS011;16320;53.954;9.506;2024-02-14T02:56:29;11.23;;;7.28;;
29314;SDS011;16320;53.954;9.506;2024-02-14T02:58:57;12.93;;;7.45;;
29314;SDS011;16320;53.954;9.506;2024-02-14T03:01:25;10.68;;;7.30;;
29314;SDS011;16320;53.954;9.506;2024-02-14T03:03:54;14.50;;;8.32;;
29314;SDS011;16320;53.954;9.506;2024-02-14T03:06:22;14.05;;;8.05;;
29314;SDS011;16320;53.954;9.506;2024-02-14T03:08:53;13.13;;;8.48;;
29314;SDS011;16320;53.954;9.506;2024-02-14T03:11:22;12.43;;;8.18;;
29314;SDS011;16320;53.954;9.506;2024-02-14T03:13:51;12.93;;;8.15;;
29314;SDS011;16320;53.954;9.506;2024-02-14T03:16:19;10.43;;;7.93;;
29314;SDS011;16320;53.954;9.506;2024-02-14T03:18:47;13.65;;;8.40;;
29314;SDS011;16320;53.954;9.506;2024-02-14T03:21:15;15.50;;;9.00;;
29314;SDS011;16320;53.954;9.506;2024-02-14T03:23:45;14.45;;;8.70;;
29314;SDS011;16320;53.954;9.506;2024-02-14T03:26:13;13.77;;;8.82;;
29314;SDS011;16320;53.954;9.506;2024-02-14T03:28:42;15.48;;;9.32;;
29314;SDS011;16320;53.954;9.506;2024-02-14T03:31:10;14.45;;;9.25;;
29314;SDS011;16320;53.954;9.506;2024-02-14T03:33:42;15.50;;;8.77;;
29314;SDS011;16320;53.954;9.506;2024-02-14T03:36:11;15.45;;;8.02;;
29314;SDS011;16320;53.954;9.506;2024-02-14T03:38:39;17.00;;;9.82;;
29314;SDS011;16320;53.954;9.506;2024-02-14T03:41:07;15.73;;;9.55;;
29314;SDS011;16320;53.954;9.506;2024-02-14T03:43:35;14.07;;;8.85;;
29314;SDS011;16320;53.954;9.506;2024-02-14T03:46:03;17.65;;;9.43;;
29314;SDS011;16320;53.954;9.506;2024-02-14T03:48:32;14.70;;;8.50;;
29314;SDS011;16320;53.954;9.506;2024-02-14T03:51:00;18.00;;;9.00;;
29314;SDS011;16320;53.954;9.506;2024-02-14T03:53:29;15.43;;;9.77;;
29314;SDS011;16320;53.954;9.506;2024-02-14T03:55:59;17.20;;;9.80;;
29314;SDS011;16320;53.954;9.506;2024-02-14T03:58:29;15.15;;;10.30;;
29314;SDS011;16320;53.954;9.506;2024-02-14T04:00:56;18.23;;;9.88;;
29314;SDS011;16320;53.954;9.506;2024-02-14T04:03:25;18.13;;;10.45;;
29314;SDS011;16320;53.954;9.506;2024-02-14T04:05:55;16.45;;;9.80;;
29314;SDS011;16320;53.954;9.506;2024-02-14T04:08:23;14.48;;;9.93;;
29314;SDS011;16320;53.954;9.506;2024-02-14T04:10:52;19.17;;;9.90;;
29314;SDS011;16320;53.954;9.506;2024-02-14T04:13:21;18.85;;;10.00;;
29314;SDS011;16320;53.954;9.506;2024-02-14T04:15:49;16.90;;;9.43;;
29314;SDS011;16320;53.954;9.506;2024-02-14T04:18:17;22.33;;;11.20;;
29314;SDS011;16320;53.954;9.506;2024-02-14T04:20:45;17.08;;;11.10;;
29314;SDS011;16320;53.954;9.506;2024-02-14T04:23:14;17.83;;;10.25;;
29314;SDS011;16320;53.954;9.506;2024-02-14T04:25:42;17.45;;;9.18;;
29314;SDS011;16320;53.954;9.506;2024-02-14T04:28:11;16.90;;;10.23;;
29314;SDS011;16320;53.954;9.506;2024-02-14T04:30:39;17.35;;;9.65;;
29314;SDS011;16320;53.954;9.506;2024-02-14T04:33:08;17.20;;;10.43;;
29314;SDS011;16320;53.954;9.506;2024-02-14T04:35:40;17.95;;;10.77;;
29314;SDS011;16320;53.954;9.506;2024-02-14T04:38:08;16.75;;;10.35;;
29314;SDS011;16320;53.954;9.506;2024-02-14T04:40:36;22.88;;;11.70;;
29314;SDS011;16320;53.954;9.506;2024-02-14T04:43:05;22.88;;;11.80;;
29314;SDS011;16320;53.954;9.506;2024-02-14T04:45:33;17.10;;;11.93;;
29314;SDS011;16320;53.954;9.506;2024-02-14T04:48:02;16.17;;;10.63;;
29314;SDS011;16320;53.954;9.506;2024-02-14T04:50:30;18.90;;;10.18;;
29314;SDS011;16320;53.954;9.506;2024-02-14T04:52:58;20.67;;;11.20;;
29314;SDS011;16320;53.954;9.506;2024-02-14T04:55:27;26.70;;;11.73;;
29314;SDS011;16320;53.954;9.506;2024-02-14T04:57:55;17.38;;;10.88;;
29314;SDS011;16320;53.954;9.506;2024-02-14T05:00:24;22.55;;;11.25;;
29314;SDS011;16320;53.954;9.506;2024-02-14T05:02:53;19.85;;;11.77;;
29314;SDS011;16320;53.954;9.506;2024-02-14T05:05:22;19.55;;;10.77;;
29314;SDS011;16320;53.954;9.506;2024-02-14T05:07:50;18.90;;;11.90;;
29314;SDS011;16320;53.954;9.506;2024-02-14T05:10:18;17.27;;;10.77;;
29314;SDS011;16320;53.954;9.506;2024-02-14T05:12:46;18.33;;;11.20;;
29314;SDS011;16320;53.954;9.506;2024-02-14T05:15:14;21.83;;;11.18;;
29314;SDS011;16320;53.954;9.506;2024-02-14T05:17:43;17.65;;;11.73;;
29314;SDS011;16320;53.954;9.506;2024-02-14T05:20:11;15.73;;;11.35;;
29314;SDS011;16320;53.954;9.506;2024-02-14T05:22:40;19.05;;;11.30;;
29314;SDS011;16320;53.954;9.506;2024-02-14T05:25:08;21.08;;;11.25;;
29314;SDS011;16320;53.954;9.506;2024-02-14T05:27:36;16.15;;;10.77;;
29314;SDS011;16320;53.954;9.506;2024-02-14T05:30:05;19.05;;;10.80;;
29314;SDS011;16320;53.954;9.506;2024-02-14T05:32:34;18.80;;;10.90;;
29314;SDS011;16320;53.954;9.506;2024-02-14T05:35:03;18.05;;;10.60;;
29314;SDS011;16320;53.954;9.506;2024-02-14T05:37:32;16.55;;;11.07;;
29314;SDS011;16320;53.954;9.506;2024-02-14T05:40:04;17.40;;;10.35;;
29314;SDS011;16320;53.954;9.506;2024-02-14T05:42:33;17.58;;;10.85;;
29314;SDS011;16320;53.954;9.506;2024-02-14T05:45:02;14.30;;;10.20;;
29314;SDS011;16320;53.954;9.506;2024-02-14T05:47:36;16.80;;;11.15;;
29314;SDS011;16320;53.954;9.506;2024-02-14T05:50:06;20.65;;;12.02;;
29314;SDS011;16320;53.954;9.506;2024-02-14T05:52:37;18.80;;;10.70;;
29314;SDS011;16320;53.954;9.506;2024-02-14T05:55:06;17.90;;;11.35;;
29314;SDS011;16320;53.954;9.506;2024-02-14T05:57:35;19.23;;;12.07;;
29314;SDS011;16320;53.954;9.506;2024-02-14T06:00:03;18.45;;;11.48;;
29314;SDS011;16320;53.954;9.506;2024-02-14T06:02:34;17.75;;;11.30;;
29314;SDS011;16320;53.954;9.506;2024-02-14T06:05:02;18.88;;;11.73;;
29314;SDS011;16320;53.954;9.506;2024-02-14T06:07:31;19.98;;;12.05;;
29314;SDS011;16320;53.954;9.506;2024-02-14T06:09:59;20.05;;;12.18;;
29314;SDS011;16320;53.954;9.506;2024-02-14T06:12:27;22.00;;;12.98;;
29314;SDS011;16320;53.954;9.506;2024-02-14T06:14:55;18.75;;;12.48;;
29314;SDS011;16320;53.954;9.506;2024-02-14T06:17:24;21.30;;;12.82;;
29314;SDS011;16320;53.954;9.506;2024-02-14T06:19:53;19.67;;;13.20;;
29314;SDS011;16320;53.954;9.506;2024-02-14T06:22:21;19.00;;;12.30;;
29314;SDS011;16320;53.954;9.506;2024-02-14T06:24:49;18.27;;;11.90;;
29314;SDS011;16320;53.954;9.506;2024-02-14T06:27:17;22.38;;;12.98;;
29314;SDS011;16320;53.954;9.506;2024-02-14T06:29:47;20.80;;;13.35;;
29314;SDS011;16320;53.954;9.506;2024-02-14T06:32:15;24.17;;;12.77;;
29314;SDS011;16320;53.954;9.506;2024-02-14T06:34:43;18.73;;;12.82;;
29314;SDS011;16320;53.954;9.506;2024-02-14T06:37:11;24.85;;;13.40;;
29314;SDS011;16320;53.954;9.506;2024-02-14T06:39:39;21.63;;;13.52;;
29314;SDS011;16320;53.954;9.506;2024-02-14T06:42:08;21.60;;;12.35;;
29314;SDS011;16320;53.954;9.506;2024-02-14T06:44:36;21.10;;;13.68;;
29314;SDS011;16320;53.954;9.506;2024-02-14T06:47:04;20.35;;;12.80;;
29314;SDS011;16320;53.954;9.506;2024-02-14T06:49:33;18.48;;;12.23;;
29314;SDS011;16320;53.954;9.506;2024-02-14T06:52:01;20.50;;;12.52;;
29314;SDS011;16320;53.954;9.506;2024-02-14T06:54:29;18.67;;;12.60;;
29314;SDS011;16320;53.954;9.506;2024-02-14T06:56:57;20.33;;;12.02;;
29314;SDS011;16320;53.954;9.506;2024-02-14T06:59:26;21.27;;;12.23;;
29314;SDS011;16320;53.954;9.506;2024-02-14T07:01:54;18.77;;;12.00;;
29314;SDS011;16320;53.954;9.506;2024-02-14T07:04:39;19.08;;;12.13;;
29314;SDS011;16320;53.954;9.506;2024-02-14T07:07:07;18.23;;;11.25;;
29314;SDS011;16320;53.954;9.506;2024-02-14T07:09:36;19.30;;;11.50;;
29314;SDS011;16320;53.954;9.506;2024-02-14T07:12:05;19.65;;;11.10;;
29314;SDS011;16320;53.954;9.506;2024-02-14T07:14:33;18.95;;;11.02;;
29314;SDS011;16320;53.954;9.506;2024-02-14T07:17:02;17.73;;;11.15;;
29314;SDS011;16320;53.954;9.506;2024-02-14T07:19:30;16.25;;;10.88;;
29314;SDS011;16320;53.954;9.506;2024-02-14T07:21:58;17.92;;;11.57;;
29314;SDS011;16320;53.954;9.506;2024-02-14T07:24:27;16.90;;;11.10;;
29314;SDS011;16320;53.954;9.506;2024-02-14T07:26:55;19.40;;;11.55;;
29314;SDS011;16320;53.954;9.506;2024-02-14T07:29:24;20.15;;;11.27;;
29314;SDS011;16320;53.954;9.506;2024-02-14T07:31:52;18.83;;;11.18;;
29314;SDS011;16320;53.954;9.506;2024-02-14T07:34:20;15.60;;;11.43;;
29314;SDS011;16320;53.954;9.506;2024-02-14T07:36:48;15.98;;;11.27;;
29314;SDS011;16320;53.954;9.506;2024-02-14T07:39:16;15.93;;;10.77;;
29314;SDS011;16320;53.954;9.506;2024-02-14T07:41:44;16.77;;;11.32;;
29314;SDS011;16320;53.954;9.506;2024-02-14T07:44:12;13.85;;;10.23;;
29314;SDS011;16320;53.954;9.506;2024-02-14T07:46:40;16.15;;;10.57;;
29314;SDS011;16320;53.954;9.506;2024-02-14T07:49:08;15.43;;;10.40;;
29314;SDS011;16320;53.954;9.506;2024-02-14T07:51:37;14.45;;;10.02;;
29314;SDS011;16320;53.954;9.506;2024-02-14T07:54:05;15.00;;;9.85;;
29314;SDS011;16320;53.954;9.506;2024-02-14T07:56:33;17.65;;;9.88;;
29314;SDS011;16320;53.954;9.506;2024-02-14T07:59:02;15.10;;;10.10;;
29314;SDS011;16320;53.954;9.506;2024-02-14T08:01:31;15.18;;;10.45;;
29314;SDS011;16320;53.954;9.506;2024-02-14T08:03:59;17.27;;;10.85;;
29314;SDS011;16320;53.954;9.506;2024-02-14T08:06:27;16.50;;;9.82;;
29314;SDS011;16320;53.954;9.506;2024-02-14T08:08:55;15.73;;;10.95;;
29314;SDS011;16320;53.954;9.506;2024-02-14T08:11:28;19.08;;;10.30;;
29314;SDS011;16320;53.954;9.506;2024-02-14T08:13:56;14.32;;;9.68;;
29314;SDS011;16320;53.954;9.506;2024-02-14T08:16:25;13.57;;;9.52;;
29314;SDS011;16320;53.954;9.506;2024-02-14T08:18:54;16.77;;;10.25;;
29314;SDS011;16320;53.954;9.506;2024-02-14T08:21:26;17.35;;;10.55;;
29314;SDS011;16320;53.954;9.506;2024-02-14T08:23:58;13.32;;;9.60;;
29314;SDS011;16320;53.954;9.506;2024-02-14T08:26:27;12.27;;;9.43;;
29314;SDS011;16320;53.954;9.506;2024-02-14T08:28:56;17.15;;;10.68;;
29314;SDS011;16320;53.954;9.506;2024-02-14T08:31:24;14.60;;;10.35;;
29314;SDS011;16320;53.954;9.506;2024-02-14T08:33:53;17.30;;;11.10;;
29314;SDS011;16320;53.954;9.506;2024-02-14T08:36:21;16.25;;;11.32;;
29314;SDS011;16320;53.954;9.506;2024-02-14T08:38:50;17.30;;;10.60;;
29314;SDS011;16320;53.954;9.506;2024-02-14T08:41:18;13.70;;;10.23;;
29314;SDS011;16320;53.954;9.506;2024-02-14T08:43:46;15.90;;;11.45;;
29314;SDS011;16320;53.954;9.506;2024-02-14T08:46:14;18.30;;;11.88;;
29314;SDS011;16320;53.954;9.506;2024-02-14T08:48:44;15.20;;;11.63;;
29314;SDS011;16320;53.954;9.506;2024-02-14T08:51:15;18.45;;;12.30;;
29314;SDS011;16320;53.954;9.506;2024-02-14T08:53:46;18.27;;;12.27;;
29314;SDS011;16320;53.954;9.506;2024-02-14T08:56:14;17.85;;;12.05;;
29314;SDS011;16320;53.954;9.506;2024-02-14T08:58:43;18.20;;;12.73;;
29314;SDS011;16320;53.954;9.506;2024-02-14T09:01:11;19.45;;;12.32;;
29314;SDS011;16320;53.954;9.506;2024-02-14T09:03:42;16.65;;;11.45;;
29314;SDS011;16320;53.954;9.506;2024-02-14T09:06:16;19.10;;;12.57;;
29314;SDS011;16320;53.954;9.506;2024-02-14T09:08:45;18.25;;;13.13;;
29314;SDS011;16320;53.954;9.506;2024-02-14T09:11:13;17.27;;;12.52;;
29314;SDS011;16320;53.954;9.506;2024-02-14T09:13:41;16.98;;;12.48;;
29314;SDS011;16320;53.954;9.506;2024-02-14T09:16:10;17.52;;;12.60;;
29314;SDS011;16320;53.954;9.506;2024-02-14T09:18:39;19.02;;;12.38;;
29314;SDS011;16320;53.954;9.506;2024-02-14T09:21:07;14.82;;;10.85;;
29314;SDS011;16320;53.954;9.506;2024-02-14T09:23:35;18.95;;;12.35;;
29314;SDS011;16320;53.954;9.506;2024-02-14T09:26:06;15.10;;;10.73;;
29314;SDS011;16320;53.954;9.506;2024-02-14T09:28:35;16.58;;;11.48;;
29314;SDS011;16320;53.954;9.506;2024-02-14T09:31:03;15.02;;;11.02;;
29314;SDS011;16320;53.954;9.506;2024-02-14T09:33:31;13.85;;;10.98;;
29314;SDS011;16320;53.954;9.506;2024-02-14T09:36:00;16.90;;;12.20;;
29314;SDS011;16320;53.954;9.506;2024-02-14T09:38:28;14.98;;;10.90;;
29314;SDS011;16320;53.954;9.506;2024-02-14T09:40:58;15.00;;;11.32;;
29314;SDS011;16320;53.954;9.506;2024-02-14T09:43:49;15.30;;;10.35;;
29314;SDS011;16320;53.954;9.506;2024-02-14T09:46:18;15.00;;;10.57;;
29314;SDS011;16320;53.954;9.506;2024-02-14T09:48:46;13.20;;;10.00;;
29314;SDS011;16320;53.954;9.506;2024-02-14T09:51:14;14.15;;;10.55;;
29314;SDS011;16320;53.954;9.506;2024-02-14T09:53:43;14.95;;;10.90;;
29314;SDS011;16320;53.954;9.506;2024-02-14T09:56:12;13.55;;;10.50;;
29314;SDS011;16320;53.954;9.506;2024-02-14T09:58:41;16.88;;;11.82;;
29314;SDS011;16320;53.954;9.506;2024-02-14T10:01:09;13.85;;;10.93;;
29314;SDS011;16320;53.954;9.506;2024-02-14T10:11:03;14.63;;;9.82;;
29314;SDS011;16320;53.954;9.506;2024-02-14T10:13:32;13.98;;;10.32;;
29314;SDS011;16320;53.954;9.506;2024-02-14T10:16:01;14.93;;;10.68;;
29314;SDS011;16320;53.954;9.506;2024-02-14T10:18:31;13.95;;;9.68;;
29314;SDS011;16320;53.954;9.506;2024-02-14T10:20:59;12.02;;;8.93;;
29314;SDS011;16320;53.954;9.506;2024-02-14T10:23:28;13.27;;;8.82;;
29314;SDS011;16320;53.954;9.506;2024-02-14T10:25:56;12.25;;;9.20;;
29314;SDS011;16320;53.954;9.506;2024-02-14T10:28:25;10.32;;;8.23;;
29314;SDS011;16320;53.954;9.506;2024-02-14T10:31:02;12.45;;;9.20;;
29314;SDS011;16320;53.954;9.506;2024-02-14T10:33:34;12.60;;;8.20;;
29314;SDS011;16320;53.954;9.506;2024-02-14T10:36:03;11.10;;;8.38;;
29314;SDS011;16320;53.954;9.506;2024-02-14T10:38:36;11.40;;;8.13;;
29314;SDS011;16320;53.954;9.506;2024-02-14T10:41:07;9.70;;;8.00;;
29314;SDS011;16320;53.954;9.506;2024-02-14T10:43:36;12.68;;;9.35;;
29314;SDS011;16320;53.954;9.506;2024-02-14T10:46:08;10.30;;;8.00;;
29314;SDS011;16320;53.954;9.506;2024-02-14T10:48:47;10.27;;;7.75;;
29314;SDS011;16320;53.954;9.506;2024-02-14T10:51:25;11.60;;;8.25;;
29314;SDS011;16320;53.954;9.506;2024-02-14T10:54:21;10.90;;;8.30;;
29314;SDS011;16320;53.954;9.506;2024-02-14T10:56:50;12.43;;;8.73;;
29314;SDS011;16320;53.954;9.506;2024-02-14T10:59:21;10.30;;;7.68;;
29314;SDS011;16320;53.954;9.506;2024-02-14T11:01:52;10.98;;;8.25;;
29314;SDS011;16320;53.954;9.506;2024-02-14T11:04:23;10.65;;;7.75;;
29314;SDS011;16320;53.954;9.506;2024-02-14T11:06:52;12.02;;;8.23;;
29314;SDS011;16320;53.954;9.506;2024-02-14T11:09:21;11.05;;;7.50;;
29314;SDS011;16320;53.954;9.506;2024-02-14T11:11:58;10.70;;;7.22;;
29314;SDS011;16320;53.954;9.506;2024-02-14T11:14:31;9.95;;;7.47;;
29314;SDS011;16320;53.954;9.506;2024-02-14T11:19:31;19.35;;;8.27;;
29314;SDS011;16320;53.954;9.506;2024-02-14T11:22:10;10.20;;;7.67;;
29314;SDS011;16320;53.954;9.506;2024-02-14T11:24:48;10.75;;;7.35;;
29314;SDS011;16320;53.954;9.506;2024-02-14T11:27:19;9.70;;;7.25;;
29314;SDS011;16320;53.954;9.506;2024-02-14T11:30:00;16.42;;;12.25;;
29314;SDS011;16320;53.954;9.506;2024-02-14T11:32:31;8.10;;;6.38;;
29314;SDS011;16320;53.954;9.506;2024-02-14T11:35:00;8.70;;;6.47;;
29314;SDS011;16320;53.954;9.506;2024-02-14T11:37:28;11.52;;;6.63;;
29314;SDS011;16320;53.954;9.506;2024-02-14T11:39:58;14.07;;;8.27;;
29314;SDS011;16320;53.954;9.506;2024-02-14T11:42:26;10.45;;;7.15;;
29314;SDS011;16320;53.954;9.506;2024-02-14T11:44:54;10.73;;;7.47;;
29314;SDS011;16320;53.954;9.506;2024-02-14T11:47:23;12.80;;;7.85;;
29314;SDS011;16320;53.954;9.506;2024-02-14T11:49:51;9.55;;;6.10;;
29314;SDS011;16320;53.954;9.506;2024-02-14T11:52:19;8.90;;;6.68;;
29314;SDS011;16320;53.954;9.506;2024-02-14T11:54:48;6.85;;;6.10;;
29314;SDS011;16320;53.954;9.506;2024-02-14T11:57:16;6.30;;;4.93;;
29314;SDS011;16320;53.954;9.506;2024-02-14T11:59:50;7.03;;;5.32;;
29314;SDS011;16320;53.954;9.506;2024-02-14T12:02:20;7.82;;;6.32;;
29314;SDS011;16320;53.954;9.506;2024-02-14T12:04:49;6.85;;;4.88;;
29314;SDS011;16320;53.954;9.506;2024-02-14T12:07:20;7.68;;;6.00;;
29314;SDS011;16320;53.954;9.506;2024-02-14T12:09:49;6.93;;;5.30;;
29314;SDS011;16320;53.954;9.506;2024-02-14T12:12:17;6.68;;;5.18;;
29314;SDS011;16320;53.954;9.506;2024-02-14T12:14:46;6.68;;;5.35;;
29314;SDS011;16320;53.954;9.506;2024-02-14T12:17:16;8.15;;;6.03;;
29314;SDS011;16320;53.954;9.506;2024-02-14T12:19:46;7.82;;;5.68;;
29314;SDS011;16320;53.954;9.506;2024-02-14T12:22:15;8.30;;;6.00;;
29314;SDS011;16320;53.954;9.506;2024-02-14T12:24:46;8.85;;;5.93;;
29314;SDS011;16320;53.954;9.506;2024-02-14T12:27:17;7.65;;;5.80;;
29314;SDS011;16320;53.954;9.506;2024-02-14T12:29:46;9.18;;;5.53;;
29314;SDS011;16320;53.954;9.506;2024-02-14T12:32:16;7.85;;;5.18;;
29314;SDS011;16320;53.954;9.506;2024-02-14T12:34:45;8.25;;;5.97;;
29314;SDS011;16320;53.954;9.506;2024-02-14T12:37:13;8.07;;;5.95;;
29314;SDS011;16320;53.954;9.506;2024-02-14T12:39:42;9.65;;;6.35;;
29314;SDS011;16320;53.954;9.506;2024-02-14T12:42:10;11.18;;;8.68;;
29314;SDS011;16320;53.954;9.506;2024-02-14T12:44:39;8.70;;;5.55;;
29314;SDS011;16320;53.954;9.506;2024-02-14T12:47:07;7.38;;;6.10;;
29314;SDS011;16320;53.954;9.506;2024-02-14T12:49:35;6.45;;;4.93;;
29314;SDS011;16320;53.954;9.506;2024-02-14T12:52:04;6.65;;;5.10;;
29314;SDS011;16320;53.954;9.506;2024-02-14T12:54:32;8.45;;;5.35;;
29314;SDS011;16320;53.954;9.506;2024-02-14T12:57:00;9.52;;;5.40;;
29314;SDS011;16320;53.954;9.506;2024-02-14T12:59:30;6.50;;;4.47;;
29314;SDS011;16320;53.954;9.506;2024-02-14T13:02:00;7.30;;;5.05;;
29314;SDS011;16320;53.954;9.506;2024-02-14T13:04:29;7.05;;;4.47;;
29314;SDS011;16320;53.954;9.506;2024-02-14T13:06:57;5.22;;;4.13;;
29314;SDS011;16320;53.954;9.506;2024-02-14T13:09:26;4.05;;;3.17;;
29314;SDS011;16320;53.954;9.506;2024-02-14T13:11:54;5.13;;;3.70;;
29314;SDS011;16320;53.954;9.506;2024-02-14T13:14:25;6.22;;;3.85;;
29314;SDS011;16320;53.954;9.506;2024-02-14T13:17:03;6.55;;;3.58;;
29314;SDS011;16320;53.954;9.506;2024-02-14T13:19:33;4.88;;;3.83;;
29314;SDS011;16320;53.954;9.506;2024-02-14T13:22:01;5.70;;;3.78;;
29314;SDS011;16320;53.954;9.506;2024-02-14T13:24:30;5.40;;;3.58;;
29314;SDS011;16320;53.954;9.506;2024-02-14T13:26:59;7.00;;;3.58;;
29314;SDS011;16320;53.954;9.506;2024-02-14T13:29:28;6.32;;;4.15;;
29314;SDS011;16320;53.954;9.506;2024-02-14T13:31:56;5.82;;;4.30;;
29314;SDS011;16320;53.954;9.506;2024-02-14T13:34:27;5.25;;;4.32;;
29314;SDS011;16320;53.954;9.506;2024-02-14T13:36:55;6.32;;;4.30;;
29314;SDS011;16320;53.954;9.506;2024-02-14T13:39:24;5.93;;;4.38;;
29314;SDS011;16320;53.954;9.506;2024-02-14T13:41:52;5.40;;;3.97;;
29314;SDS011;16320;53.954;9.506;2024-02-14T13:44:24;8.18;;;5.15;;
29314;SDS011;16320;53.954;9.506;2024-02-14T13:46:53;6.28;;;4.40;;
29314;SDS011;16320;53.954;9.506;2024-02-14T13:49:24;7.35;;;4.35;;
29314;SDS011;16320;53.954;9.506;2024-02-14T13:52:06;5.50;;;4.13;;
29314;SDS011;16320;53.954;9.506;2024-02-14T13:54:35;6.90;;;4.60;;
29314;SDS011;16320;53.954;9.506;2024-02-14T13:57:03;7.07;;;4.70;;
29314;SDS011;16320;53.954;9.506;2024-02-14T13:59:32;8.75;;;5.78;;
29314;SDS011;16320;53.954;9.506;2024-02-14T14:02:01;11.18;;;6.28;;
29314;SDS011;16320;53.954;9.506;2024-02-14T14:04:35;10.88;;;6.80;;
29314;SDS011;16320;53.954;9.506;2024-02-14T14:07:04;12.18;;;7.30;;
29314;SDS011;16320;53.954;9.506;2024-02-14T14:09:32;43.80;;;25.08;;
29314;SDS011;16320;53.954;9.506;2024-02-14T14:12:04;22.10;;;12.57;;
29314;SDS011;16320;53.954;9.506;2024-02-14T14:14:33;14.75;;;8.70;;
29314;SDS011;16320;53.954;9.506;2024-02-14T14:17:04;14.70;;;9.02;;
29314;SDS011;16320;53.954;9.506;2024-02-14T14:19:33;13.90;;;9.20;;
29314;SDS011;16320;53.954;9.506;2024-02-14T14:22:02;16.77;;;9.32;;
29314;SDS011;16320;53.954;9.506;2024-02-14T14:24:32;12.10;;;7.85;;
29314;SDS011;16320;53.954;9.506;2024-02-14T14:27:02;11.02;;;8.00;;
29314;SDS011;16320;53.954;9.506;2024-02-14T14:29:30;13.15;;;8.68;;
29314;SDS011;16320;53.954;9.506;2024-02-14T14:32:00;12.18;;;7.95;;
29314;SDS011;16320;53.954;9.506;2024-02-14T14:34:29;12.95;;;7.78;;
29314;SDS011;16320;53.954;9.506;2024-02-14T14:37:00;10.35;;;7.03;;
29314;SDS011;16320;53.954;9.506;2024-02-14T14:39:28;12.13;;;7.30;;
29314;SDS011;16320;53.954;9.506;2024-02-14T14:41:58;15.65;;;8.40;;
29314;SDS011;16320;53.954;9.506;2024-02-14T14:44:26;12.18;;;6.93;;
29314;SDS011;16320;53.954;9.506;2024-02-14T14:46:57;13.15;;;8.35;;
29314;SDS011;16320;53.954;9.506;2024-02-14T14:49:26;11.13;;;7.07;;
29314;SDS011;16320;53.954;9.506;2024-02-14T14:51:55;10.90;;;7.05;;
29314;SDS011;16320;53.954;9.506;2024-02-14T14:54:25;12.77;;;7.53;;